Flight Track Log - Related Links

Times and Time Zones

All times are in EST time to prevent confusion due to time zone crossing. See the FLG3776 flight status page for this flight to view local times or setup timezone preferences in your user account.

Time Position Orientation Groundspeed Altitude Reporting Facility
EST Latitude Longitude Course Direction KTS MPH feet Rate Location/Type
Fri 08:51:16 PM 44.9000 -93.2333 19° North 143 165 2,200  Level Minneapolis TRACON
Fri 08:52:16 PM 44.9333 -93.2167 19° North 196 226 4,900 2,326 Climbing Minneapolis TRACON
Fri 08:53:25 PM 44.9247 -93.1047 96° East 303 349 7,200 2,308 Climbing Minneapolis Center
Fri 08:54:26 PM 44.8789 -92.9931 120° Southeast 324 373 9,900 2,732 Climbing Minneapolis Center
Fri 08:55:28 PM 44.8319 -92.8778 120° Southeast 335 386 12,800 2,613 Climbing Minneapolis Center
Fri 08:56:30 PM 44.7842 -92.7614 120° Southeast 342 394 15,300 2,323 Climbing Minneapolis Center
Fri 08:57:32 PM 44.7356 -92.6433 120° Southeast 349 402 17,600 1,790 Climbing Minneapolis Center
Fri 08:58:34 PM 44.6842 -92.5181 120° Southeast 363 418 19,000 1,645 Climbing Minneapolis Center
Fri 08:59:36 PM 44.6300 -92.3861 120° Southeast 382 440 21,000 1,645 Climbing Minneapolis Center
Fri 09:00:38 PM 44.5631 -92.2286 121° Southeast 393 452 22,400 1,210 Climbing Minneapolis Center
Fri 09:01:40 PM 44.4989 -92.0961 124° Southeast 407 468 23,500 919 Climbing Minneapolis Center
Fri 09:02:42 PM 44.4289 -91.9642 127° Southeast 418 481 24,300 927 Climbing Minneapolis Center
Fri 09:03:43 PM 44.3614 -91.8294 125° Southeast 422 486 25,400 780 Climbing Minneapolis Center
Fri 09:04:45 PM 44.3042 -91.6792 118° Southeast 434 499 25,900 484 Climbing Minneapolis Center
Fri 09:05:47 PM 44.2456 -91.5258 118° Southeast 444 511 26,400 484 Climbing Minneapolis Center
Fri 09:06:49 PM 44.1856 -91.3683 118° Southeast 456 525 26,900 629 Climbing Minneapolis Center
Fri 09:07:51 PM 44.1167 -91.1881 118° Southeast 462 532 27,700 726 Climbing Minneapolis Center
Fri 09:08:53 PM 44.0558 -91.0322 118° Southeast 462 532 28,400 677 Climbing Minneapolis Center
Fri 09:09:55 PM 43.9961 -90.8778 118° Southeast 458 527 29,100 677 Climbing Minneapolis Center
Fri 09:10:57 PM 43.9347 -90.7253 119° Southeast 455 524 29,800 732 Climbing Minneapolis Center
Fri 09:11:58 PM 43.8656 -90.5481 118° Southeast 451 519 30,600 732 Climbing Minneapolis Center
Fri 09:13:00 PM 43.8053 -90.3972 119° Southeast 449 517 31,300 677 Climbing Minneapolis Center
Fri 09:14:02 PM 43.7442 -90.2422 119° Southeast 445 512 32,000 629 Climbing Minneapolis Center
Fri 09:15:04 PM 43.6886 -90.0958 118° Southeast 446 513 32,600 484 Climbing Minneapolis Center
Fri 09:16:06 PM 43.6419 -89.9339 112° Southeast 453 521 33,000 194 Climbing Minneapolis Center
Fri 09:17:08 PM 43.5836 -89.7372 112° Southeast 461 531 33,000  Level Minneapolis Center
Fri 09:18:10 PM 43.5336 -89.5686 112° Southeast 471 542 33,000  Level Minneapolis Center
Fri 09:19:12 PM 43.4822 -89.3953 112° Southeast 484 557 33,000  Level Minneapolis Center
Fri 09:20:14 PM 43.4292 -89.2222 113° Southeast 489 563 33,000  Level Minneapolis Center
Fri 09:21:16 PM 43.3758 -89.0481 113° Southeast 495 570 33,000  Level Minneapolis Center
Fri 09:22:18 PM 43.3233 -88.8739 112° Southeast 497 572 33,000  Level Minneapolis Center
Fri 09:23:20 PM 43.2597 -88.6681 113° Southeast 498 573 33,000  Level Minneapolis Center
Fri 09:24:21 PM 43.2067 -88.4983 113° Southeast 496 571 33,000  Level Minneapolis Center
Fri 09:25:23 PM 43.1525 -88.3275 113° Southeast 496 571 33,000  Level Minneapolis Center
Fri 09:26:25 PM 43.0978 -88.1558 114° Southeast 496 571 33,000 -290 Level Minneapolis Center
Fri 09:27:27 PM 43.0317 -87.9478 113° Southeast 500 575 32,400 -1,049 Descending Minneapolis Center
Fri 09:28:48 PM 42.9642 -87.7339 113° Southeast 510 587 30,500 -1,437 Descending Chicago Center
Fri 09:29:49 PM 42.9067 -87.5564 114° Southeast 514 592 29,000 -1,512 Descending Chicago Center
Fri 09:30:51 PM 42.8475 -87.3711 113° Southeast 506 582 27,400 -1,500 Descending Chicago Center
Fri 09:31:53 PM 42.7903 -87.2006 115° Southeast 499 574 25,900 -1,951 Descending Chicago Center
Fri 09:32:54 PM 42.7236 -86.9961 114° Southeast 497 572 23,400 -2,341 Descending Chicago Center
Fri 09:33:56 PM 42.6711 -86.8356 114° Southeast 468 539 21,100 -2,129 Descending Chicago Center
Fri 09:34:58 PM 42.6192 -86.6836 115° Southeast 450 518 19,000 -2,244 Descending Chicago Center
Fri 09:35:59 PM 42.5675 -86.5294 114° Southeast 451 519 16,500 -2,439 Descending Chicago Center
Fri 09:37:01 PM 42.5200 -86.3867 114° Southeast 422 486 14,000 -2,419 Descending Chicago Center
Fri 09:38:03 PM 42.4731 -86.2494 115° Southeast 407 468 11,500 -1,902 Descending Chicago Center
Fri 09:39:04 PM 42.4242 -86.1019 114° Southeast 355 409 10,100 -1,512 Descending Chicago Center
Fri 09:40:06 PM 42.3867 -85.9919 115° Southeast 332 382 8,400 -1,790 Descending Chicago Center
Fri 09:41:08 PM 42.3764 -85.8781 97° East 313 360 6,400 -1,790 Descending Chicago Center
Fri 09:42:10 PM 42.3689 -85.7689 95° East 300 345 4,700 -1,561 Descending Chicago Center
Fri 09:43:11 PM 42.3636 -85.6681 94° East 282 325 3,200 -976 Descending Chicago Center
Fri 09:44:13 PM 42.3458 -85.5883 107° East 238 274 2,700 -484 Descending Chicago Center
Fri 09:45:15 PM 42.3100 -85.5650 154° Southeast 155 178 2,200 -585 Descending Chicago Center
Fri 09:46:16 PM 42.2708 -85.5583 173° South 132 152 1,500 -341 Descending Chicago Center
Fri 09:47:18 PM 42.2364 -85.5519 172° South 131 151 1,500  Level Chicago Center

Login

Don't have an account? Register now (free) for customized features, flight alerts, and more!